Time;durP1;ratioP1;P1;durP2;ratioP2;P2;SDS_P1;SDS_P2;PMS_P1;PMS_P2;Temp;Humidity;BMP_temperature;BMP_pressure;BME280_temperature;BME280_humidity;BME280_pressure;Samples;Min_cycle;Max_cycle;Signal;HPM_P1;HPM_P2
2021/08/06 00:07:24;;;;;;;4.70;1.83;;;19.70;99.90;;;;;;20576191;28;20884;-86
2021/08/06 00:17:26;;;;;;;3.75;1.77;;;19.80;99.90;;;;;;20584701;28;20065;-86
2021/08/06 00:27:30;;;;;;;4.30;1.33;;;19.80;99.90;;;;;;20558739;28;20042;-85
2021/08/06 00:37:31;;;;;;;3.30;1.50;;;19.90;99.90;;;;;;20595403;28;20553;-84
2021/08/06 00:47:35;;;;;;;3.60;1.20;;;19.90;99.90;;;;;;20584674;28;20168;-84
2021/08/06 00:57:37;;;;;;;4.18;1.35;;;20.00;99.90;;;;;;20592759;28;20647;-84
2021/08/06 01:08:06;;;;;;;2.65;1.05;;;20.00;99.90;;;;;;20566772;28;20466;-87
2021/08/06 01:18:08;;;;;;;2.00;0.77;;;20.00;99.90;;;;;;20574396;28;20142;-87
2021/08/06 01:28:13;;;;;;;1.65;0.70;;;19.90;99.90;;;;;;20589513;28;20050;-86
2021/08/06 01:38:16;;;;;;;1.40;0.50;;;19.70;99.90;;;;;;20596753;28;20050;-86
2021/08/06 01:48:22;;;;;;;2.05;0.82;;;19.60;99.90;;;;;;20629602;28;20184;-85
2021/08/06 01:58:24;;;;;;;3.10;1.15;;;19.70;99.90;;;;;;20572208;28;20046;-85
2021/08/06 02:08:26;;;;;;;2.38;0.98;;;19.70;99.90;;;;;;20579978;28;20042;-86
2021/08/06 02:18:30;;;;;;;3.03;0.80;;;19.60;99.90;;;;;;20555503;28;20069;-86
2021/08/06 02:28:32;;;;;;;2.03;0.73;;;19.50;99.90;;;;;;20575304;28;20042;-86
2021/08/06 02:38:34;;;;;;;2.30;1.00;;;19.40;99.90;;;;;;20562289;28;20058;-86
2021/08/06 02:48:36;;;;;;;2.28;0.77;;;19.40;99.90;;;;;;20572496;28;20058;-86
2021/08/06 02:58:39;;;;;;;1.75;0.70;;;19.50;99.90;;;;;;20567080;28;20031;-86
2021/08/06 03:08:40;;;;;;;1.50;0.57;;;19.30;99.90;;;;;;20575299;28;20046;-87
2021/08/06 03:18:41;;;;;;;1.23;0.50;;;18.70;99.90;;;;;;20555777;28;20050;-86
2021/08/06 03:28:42;;;;;;;2.63;0.60;;;18.50;99.90;;;;;;20571504;28;20038;-86
2021/08/06 03:38:44;;;;;;;1.02;0.50;;;18.50;99.90;;;;;;20568027;28;20050;-86
2021/08/06 03:48:45;;;;;;;1.48;0.60;;;18.50;99.90;;;;;;20567482;28;20045;-86
2021/08/06 03:58:46;;;;;;;1.25;0.50;;;18.50;99.90;;;;;;20553004;28;20050;-87
2021/08/06 04:08:47;;;;;;;1.05;0.45;;;18.60;99.90;;;;;;20561103;28;20070;-87
2021/08/06 04:18:50;;;;;;;2.00;0.60;;;18.50;99.90;;;;;;20577858;28;20128;-87
2021/08/06 04:28:52;;;;;;;1.50;0.88;;;18.60;99.90;;;;;;20601076;28;20116;-86
2021/08/06 04:38:53;;;;;;;2.15;0.60;;;18.50;99.90;;;;;;20573457;28;20053;-85
2021/08/06 04:48:54;;;;;;;2.72;0.70;;;18.40;99.90;;;;;;20582614;28;20078;-86
2021/08/06 04:58:55;;;;;;;2.10;0.88;;;18.30;99.90;;;;;;20528083;28;20050;-86
2021/08/06 05:08:56;;;;;;;1.50;0.60;;;18.20;99.90;;;;;;20558845;28;20488;-87
2021/08/06 05:18:57;;;;;;;1.73;0.70;;;18.20;99.90;;;;;;20538454;28;20085;-86
2021/08/06 05:28:58;;;;;;;5.70;0.70;;;18.20;99.90;;;;;;20563531;28;20079;-87
2021/08/06 05:39:00;;;;;;;2.45;1.27;;;18.40;99.90;;;;;;20544499;28;20325;-87
2021/08/06 05:49:01;;;;;;;3.00;1.00;;;18.20;99.90;;;;;;20552042;28;20383;-86
2021/08/06 05:59:02;;;;;;;3.65;1.27;;;18.20;99.90;;;;;;20597898;28;20113;-85
2021/08/06 06:09:03;;;;;;;2.13;1.20;;;18.30;99.90;;;;;;20566236;28;20057;-86
2021/08/06 06:19:04;;;;;;;1.83;0.90;;;18.30;99.90;;;;;;20575633;28;20046;-83
2021/08/06 06:29:05;;;;;;;3.58;1.00;;;18.40;99.90;;;;;;20581451;28;20312;-83
2021/08/06 06:39:06;;;;;;;2.58;1.02;;;18.60;99.90;;;;;;20591147;28;20239;-85
2021/08/06 06:49:08;;;;;;;2.58;1.02;;;18.70;99.90;;;;;;20574354;28;20129;-85
2021/08/06 06:59:09;;;;;;;2.67;1.17;;;18.80;99.90;;;;;;20581613;28;20472;-87
2021/08/06 07:09:10;;;;;;;3.30;1.00;;;18.80;99.90;;;;;;20590055;28;20100;-87
2021/08/06 07:19:11;;;;;;;4.05;1.02;;;18.90;99.90;;;;;;20563865;28;20050;-88
2021/08/06 07:29:12;;;;;;;2.85;1.20;;;18.80;99.90;;;;;;20560880;28;20112;-88
2021/08/06 07:39:13;;;;;;;4.28;1.00;;;18.90;99.90;;;;;;20620706;28;20145;-86
2021/08/06 07:49:15;;;;;;;4.93;1.20;;;19.00;99.90;;;;;;20580843;28;20057;-85
2021/08/06 07:59:19;;;;;;;2.65;1.00;;;19.30;99.90;;;;;;20582728;28;20030;-85
2021/08/06 08:09:20;;;;;;;6.93;0.90;;;19.70;99.90;;;;;;20591109;28;20312;-86
2021/08/06 08:19:21;;;;;;;1.85;1.05;;;19.60;99.90;;;;;;20537827;28;20597;-83
2021/08/06 08:29:23;;;;;;;3.65;1.00;;;19.80;99.90;;;;;;20623358;28;20081;-86
2021/08/06 08:39:24;;;;;;;3.33;0.85;;;20.50;99.90;;;;;;20602187;28;20129;-84
2021/08/06 08:49:30;;;;;;;1.92;0.88;;;20.60;99.90;;;;;;20559240;28;20061;-85
2021/08/06 08:59:31;;;;;;;3.22;0.60;;;20.20;99.90;;;;;;20625852;28;20208;-83
2021/08/06 09:09:33;;;;;;;2.35;0.90;;;20.10;99.90;;;;;;20597277;28;20128;-84
2021/08/06 09:19:39;;;;;;;2.55;0.90;;;20.40;99.90;;;;;;20599232;28;20042;-79
2021/08/06 09:29:41;;;;;;;2.75;1.38;;;20.70;99.90;;;;;;20564566;28;20043;-81
2021/08/06 09:39:45;;;;;;;3.35;1.27;;;20.30;99.90;;;;;;20570455;28;20295;-81
2021/08/06 09:49:50;;;;;;;2.08;1.10;;;20.40;99.90;;;;;;20560547;28;20038;-80
2021/08/06 09:59:54;;;;;;;1.63;0.70;;;20.90;99.90;;;;;;20563575;28;20228;-78
2021/08/06 10:09:56;;;;;;;2.25;0.75;;;20.70;99.90;;;;;;20557490;28;20128;-77
2021/08/06 10:19:57;;;;;;;1.73;0.57;;;20.70;99.90;;;;;;20564008;28;20604;-80
2021/08/06 10:30:09;;;;;;;1.40;0.52;;;20.80;99.90;;;;;;20573372;28;20205;-82
2021/08/06 10:40:10;;;;;;;3.00;1.00;;;21.40;99.90;;;;;;20568370;28;20159;-80
2021/08/06 10:50:17;;;;;;;1.33;0.50;;;21.60;99.90;;;;;;20573741;28;20065;-79
2021/08/06 11:00:37;;;;;;;2.73;0.67;;;22.30;99.90;;;;;;20585170;28;20046;-81
2021/08/06 11:10:47;;;;;;;2.70;0.60;;;22.50;99.90;;;;;;20578805;28;20426;-84
2021/08/06 11:20:54;;;;;;;1.88;0.60;;;22.00;99.90;;;;;;20588833;28;20038;-85
2021/08/06 11:30:56;;;;;;;1.15;0.40;;;21.00;99.90;;;;;;20573925;28;20515;-81
2021/08/06 11:40:58;;;;;;;4.10;0.82;;;18.40;99.90;;;;;;20595367;28;20681;-82
2021/08/06 11:51:06;;;;;;;3.33;0.90;;;18.70;99.90;;;;;;20582022;28;20648;-81
2021/08/06 12:01:15;;;;;;;2.83;1.30;;;19.10;99.90;;;;;;20588536;28;20566;-81
2021/08/06 12:11:22;;;;;;;1.77;0.98;;;19.60;99.90;;;;;;20626137;28;20885;-79
2021/08/06 12:21:26;;;;;;;4.13;1.27;;;19.60;99.90;;;;;;20624743;28;20034;-82
2021/08/06 12:31:27;;;;;;;5.20;1.83;;;18.90;99.90;;;;;;20598624;28;20647;-82
2021/08/06 12:41:31;;;;;;;1.98;0.77;;;18.10;99.90;;;;;;20578803;28;20546;-80
2021/08/06 12:51:34;;;;;;;2.85;0.73;;;18.00;99.90;;;;;;20572104;28;20125;-81
2021/08/06 13:01:37;;;;;;;1.30;0.57;;;18.60;99.90;;;;;;20597556;28;20537;-81
2021/08/06 13:11:39;;;;;;;3.63;1.77;;;19.50;99.90;;;;;;20581247;28;20275;-82
2021/08/06 13:21:40;;;;;;;1.65;1.13;;;20.30;99.90;;;;;;20559577;28;20066;-79
2021/08/06 13:31:41;;;;;;;2.65;0.70;;;20.70;99.90;;;;;;20581400;28;20729;-78
2021/08/06 13:41:43;;;;;;;4.28;1.95;;;20.30;99.90;;;;;;20603597;28;20062;-78
2021/08/06 13:51:44;;;;;;;1.30;0.68;;;20.10;99.90;;;;;;20596760;28;20042;-78
2021/08/06 14:01:46;;;;;;;1.50;0.93;;;19.80;99.90;;;;;;20601983;28;20105;-78
2021/08/06 14:11:47;;;;;;;0.88;0.45;;;19.90;99.90;;;;;;20594139;28;20451;-78
2021/08/06 14:21:49;;;;;;;1.58;0.65;;;20.50;99.90;;;;;;20590898;28;20046;-79
2021/08/06 14:31:50;;;;;;;1.55;0.40;;;20.60;99.90;;;;;;20571733;28;20247;-80
2021/08/06 14:41:51;;;;;;;3.70;0.52;;;20.80;99.90;;;;;;20585578;28;20046;-79
2021/08/06 14:51:52;;;;;;;6.00;0.50;;;20.80;99.90;;;;;;20640700;28;20034;-79
2021/08/06 15:01:55;;;;;;;2.78;0.75;;;21.20;99.90;;;;;;20630591;28;20093;-79
2021/08/06 15:11:56;;;;;;;0.70;0.30;;;21.50;99.90;;;;;;20621752;28;20502;-79
2021/08/06 15:21:59;;;;;;;3.45;0.63;;;21.60;99.90;;;;;;20594014;28;20034;-80
2021/08/06 15:32:00;;;;;;;2.50;0.43;;;21.20;99.90;;;;;;20615652;28;20047;-81
2021/08/06 15:42:02;;;;;;;4.38;1.17;;;21.20;99.90;;;;;;20700612;28;20109;-79
2021/08/06 15:52:03;;;;;;;2.30;0.47;;;21.30;99.90;;;;;;20665454;28;20030;-79
2021/08/06 16:02:06;;;;;;;2.92;0.30;;;21.50;99.90;;;;;;20630361;28;20050;-79
2021/08/06 16:12:08;;;;;;;1.58;0.57;;;21.20;99.90;;;;;;20645069;28;20034;-79
2021/08/06 16:22:10;;;;;;;1.50;0.60;;;21.40;99.90;;;;;;20645227;28;20046;-79
2021/08/06 16:32:12;;;;;;;1.88;0.70;;;21.10;99.90;;;;;;20644506;28;20133;-79
2021/08/06 16:42:15;;;;;;;1.85;0.50;;;20.80;99.90;;;;;;20641552;28;20064;-79
2021/08/06 16:52:17;;;;;;;2.78;0.63;;;20.70;99.90;;;;;;20654748;28;20131;-78
2021/08/06 17:02:18;;;;;;;4.68;0.90;;;20.90;99.90;;;;;;20613303;28;20046;-79
2021/08/06 17:12:20;;;;;;;7.15;0.65;;;21.10;99.90;;;;;;20635599;28;20034;-78
2021/08/06 17:22:21;;;;;;;2.63;0.40;;;21.10;99.90;;;;;;20623799;28;20068;-81
2021/08/06 17:32:23;;;;;;;2.13;0.60;;;21.00;99.90;;;;;;20612038;28;20042;-80
2021/08/06 17:42:24;;;;;;;1.00;0.40;;;21.00;99.90;;;;;;20639948;28;20053;-80
2021/08/06 17:52:25;;;;;;;1.25;0.50;;;20.90;99.90;;;;;;20610697;28;20061;-80
2021/08/06 18:02:26;;;;;;;3.22;0.60;;;20.90;99.90;;;;;;20625585;28;20077;-80
2021/08/06 18:12:28;;;;;;;4.22;0.50;;;20.60;99.90;;;;;;20637816;28;20097;-80
2021/08/06 18:22:29;;;;;;;1.75;0.60;;;20.50;99.90;;;;;;20636436;28;20066;-80
2021/08/06 18:32:30;;;;;;;1.58;0.60;;;20.50;99.90;;;;;;20608547;28;20061;-81
2021/08/06 18:42:33;;;;;;;3.75;0.47;;;20.20;99.90;;;;;;20633436;28;20072;-80
2021/08/06 18:52:35;;;;;;;5.38;0.90;;;19.90;99.90;;;;;;20627704;28;20035;-80
2021/08/06 19:02:38;;;;;;;4.43;0.68;;;19.70;99.90;;;;;;20642385;28;20154;-80
2021/08/06 19:12:40;;;;;;;4.30;1.10;;;19.60;99.90;;;;;;20621943;28;20063;-80
2021/08/06 19:22:41;;;;;;;4.45;0.80;;;19.30;99.90;;;;;;20630005;28;20133;-80
2021/08/06 19:32:43;;;;;;;3.13;1.33;;;19.10;99.90;;;;;;20663236;28;20035;-78
2021/08/06 19:42:44;;;;;;;7.95;1.42;;;19.10;99.90;;;;;;20629552;28;20050;-78
2021/08/06 19:52:45;;;;;;;10.73;1.27;;;18.80;99.90;;;;;;20647087;28;20038;-77
2021/08/06 20:02:47;;;;;;;3.05;0.73;;;18.70;99.90;;;;;;20655676;28;20046;-79
2021/08/06 20:12:49;;;;;;;8.27;1.35;;;18.60;99.90;;;;;;20655617;28;20071;-79
2021/08/06 20:22:50;;;;;;;3.47;0.52;;;18.60;99.90;;;;;;20645028;28;20038;-79
2021/08/06 20:32:51;;;;;;;6.13;1.23;;;18.60;99.90;;;;;;20640768;28;20042;-79
2021/08/06 20:42:52;;;;;;;3.67;0.93;;;18.40;99.90;;;;;;20640633;28;20047;-81
2021/08/06 20:52:53;;;;;;;1.80;0.65;;;18.50;99.90;;;;;;20638461;28;20138;-79
2021/08/06 21:02:55;;;;;;;1.85;0.60;;;18.50;99.90;;;;;;20636386;28;20038;-79
2021/08/06 21:12:56;;;;;;;5.03;0.57;;;18.30;99.90;;;;;;20637901;28;20077;-80
2021/08/06 21:22:57;;;;;;;2.35;0.50;;;18.20;99.90;;;;;;20613724;28;20042;-79
2021/08/06 21:32:58;;;;;;;2.58;0.55;;;18.20;99.90;;;;;;20630381;28;20113;-79
2021/08/06 21:42:59;;;;;;;1.83;0.75;;;18.20;99.90;;;;;;20615132;28;20076;-79
2021/08/06 21:53:00;;;;;;;3.78;0.85;;;18.30;99.90;;;;;;20640869;28;20049;-82
2021/08/06 22:03:01;;;;;;;1.35;0.50;;;18.30;99.90;;;;;;20620793;28;20061;-82
2021/08/06 22:13:03;;;;;;;4.53;1.02;;;18.20;99.90;;;;;;20644568;28;20027;-82
2021/08/06 22:23:04;;;;;;;9.95;1.25;;;18.30;99.90;;;;;;20602659;28;20046;-82
2021/08/06 22:33:05;;;;;;;1.70;0.63;;;18.30;99.90;;;;;;20618108;28;20643;-82
2021/08/06 22:43:06;;;;;;;1.35;0.43;;;18.20;99.90;;;;;;20644395;28;20050;-82
2021/08/06 22:53:08;;;;;;;2.50;0.30;;;17.90;99.90;;;;;;20606631;28;20053;-81
2021/08/06 23:03:09;;;;;;;1.75;0.77;;;17.70;99.90;;;;;;20650155;28;20037;-82
2021/08/06 23:13:10;;;;;;;4.20;0.88;;;17.60;99.90;;;;;;20670888;28;20043;-82
2021/08/06 23:23:12;;;;;;;2.97;0.50;;;17.30;99.90;;;;;;20677250;28;20046;-82
2021/08/06 23:33:13;;;;;;;1.80;0.98;;;17.30;99.90;;;;;;20716962;28;20066;-81
2021/08/06 23:43:14;;;;;;;1.50;0.90;;;17.30;99.90;;;;;;20630889;28;20054;-81
2021/08/06 23:53:15;;;;;;;10.90;0.98;;;17.20;99.90;;;;;;20650135;28;20454;-81
